Haines, Alaska
Current Conditions -  °F | °C
As of 11:01 PM on Thursday 30 Oct 2014 (Local Time) from PAHN Reporting Station
Overcast Overcast  
Wind Chill: 37°   Ceiling: 1200
Heat Index: 42°   Visibility: 10mi
Dew Point: 39°   Wind: 9mph
Humidity: 89%   Direction: 90°E
Pressure: 29.41"   Gusts: 18mph
Location:  59.24°N, 135.45°W
Report Text: PAHN 310701Z AUTO 09008G16KT 060V130 10SM BKN012 BKN019 OVC070 06/04 A2941 RMK AO2 T00560039 TSNO
Loading
Personal Weather Stations






























Interactive Weather Map
Tropical Storm Tracking
New forecast layout! Learn more

10-Day Weather Forecast

Advertisements
Track Severe Weather on mobile